Seastreak New York — WDA4972 — position and weather

sailwx.info

Track history (hours):
 
Tides and Currents Weather Stations Pressure Air Temp Water Temp Dewpoint Dewpoint Depression Visibility Wind Speed Wind Dir Waves Ship Positions

Seastreak New York

Owner: CIRCLE NAVIGATION, NEW YORK, NY. More information available from US FCC via Universal Licensing System and Coast Guard Vessel Documentation Center.

Last reported at 2018-Feb-24 01:30 UTC. Time now 2018-Feb-25 03:21 UTC.
Position N 40°25' W 073°60'.

; draft 4.7 m.

Type: Passenger vessel. MMSI: 367347130.

Date/timePositionNaut miles runAvg speedWind from/ knotsBaromVisibWave heightAir tempDewpointWater temp
2018-Feb-24 01:30N 40°25' W 073°60'1120.9
2018-Feb-24 01:00N 40°35' W 074°03'1020.3
2018-Feb-24 00:29N 40°45' W 073°58'612.7
2018-Feb-24 00:01N 40°39' W 074°02'1527.0
2018-Feb-23 23:28N 40°25' W 073°60'5 8.5
2018-Feb-23 22:56N 40°29' W 074°02'1331.1
2018-Feb-23 22:30N 40°42' W 074°00'3 5.8
2018-Feb-23 22:00N 40°45' W 073°58'714.5
2018-Feb-23 21:30N 40°38' W 074°03'1322.5
2018-Feb-23 20:55N 40°25' W 074°02'1016.8
2018-Feb-23 20:21N 40°35' W 074°03'822.1
2018-Feb-23 20:01N 40°42' W 074°00'3 5.7
2018-Feb-23 19:30N 40°45' W 073°58'0 0.0
2018-Feb-23 18:58N 40°45' W 073°58'0 0.0
2018-Feb-23 18:30N 40°45' W 073°58'0 0.0
2018-Feb-23 18:00N 40°45' W 073°58'0 0.0
2018-Feb-23 17:30N 40°45' W 073°58'0 0.0
2018-Feb-23 17:00N 40°45' W 073°58'0 0.0
2018-Feb-23 16:30N 40°45' W 073°58'0 0.0
2018-Feb-23 16:00N 40°45' W 073°58'0 0.0
2018-Feb-23 15:30N 40°45' W 073°58'0 0.0
2018-Feb-23 15:00N 40°45' W 073°58'3 6.1
2018-Feb-23 14:31N 40°42' W 074°00'1731.4
2018-Feb-23 13:59N 40°26' W 074°02'1118.2
2018-Feb-23 13:23N 40°36' W 074°03'922.3
2018-Feb-23 13:00N 40°45' W 073°58'611.9
2018-Feb-23 12:31N 40°39' W 074°01'1419.7
2018-Feb-23 11:47N 40°25' W 074°02'2 0.2
2018-Feb-23 01:36N 40°25' W 073°60'0 0.3
2018-Feb-23 01:30N 40°25' W 073°60'1322.9
2018-Feb-23 00:55N 40°38' W 074°03'818.6
2018-Feb-23 00:30N 40°45' W 073°58'4 7.2
2018-Feb-23 00:01N 40°41' W 074°01'1530.2
2018-Feb-22 23:30N 40°26' W 074°01'3 5.0
2018-Feb-22 22:55N 40°29' W 074°02'1332.4
2018-Feb-22 22:30N 40°42' W 074°00'3 5.7
2018-Feb-22 22:00N 40°45' W 073°58'714.5
2018-Feb-22 21:31N 40°38' W 074°02'1319.1
2018-Feb-22 20:50N 40°25' W 074°01'712.9
2018-Feb-22 20:19N 40°32' W 074°02'1033.0
2018-Feb-22 20:00N 40°42' W 074°00'3 5.8
2018-Feb-22 19:30N 40°45' W 073°58'0 0.0
2018-Feb-22 19:00N 40°45' W 073°58'0 0.0
2018-Feb-22 18:30N 40°45' W 073°58'0 0.0
2018-Feb-22 18:00N 40°45' W 073°58'0 0.0
2018-Feb-22 17:30N 40°45' W 073°58'0 0.0
2018-Feb-22 16:59N 40°45' W 073°58'0 0.0
2018-Feb-22 16:29N 40°45' W 073°58'0 0.0
2018-Feb-22 16:00N 40°45' W 073°58'0 0.0
2018-Feb-22 15:30N 40°45' W 073°58'0 0.0
2018-Feb-22 15:00N 40°45' W 073°58'4 7.6
2018-Feb-22 14:31N 40°41' W 074°01'1620.8
2018-Feb-22 13:44N 40°25' W 074°02'730.8
2018-Feb-22 13:30N 40°32' W 074°02'1325.6
2018-Feb-22 13:00N 40°45' W 073°58'612.0
2018-Feb-22 12:31N 40°39' W 074°02'1424.7
2018-Feb-22 11:56N 40°25' W 074°02'2 2.2
2018-Feb-22 11:05N 40°25' W 073°60'0 0.4
2018-Feb-22 11:00N 40°25' W 073°60'0 0.0
2018-Feb-22 02:20N 40°25' W 073°60'0 0.0
2018-Feb-22 01:56N 40°25' W 073°60'1 2.7
2018-Feb-22 01:30N 40°25' W 074°01'1121.5
2018-Feb-22 01:00N 40°36' W 074°03'918.1
2018-Feb-22 00:30N 40°45' W 073°58'715.3
2018-Feb-22 00:01N 40°38' W 074°03'1422.0
2018-Feb-21 23:24N 40°25' W 073°60'1016.6
2018-Feb-21 22:47N 40°34' W 074°03'827.4
2018-Feb-21 22:30N 40°42' W 074°00'3 5.8
2018-Feb-21 22:00N 40°45' W 073°58'815.4
2018-Feb-21 21:31N 40°38' W 074°03'1319.1
2018-Feb-21 20:50N 40°25' W 074°00'817.2
2018-Feb-21 20:23N 40°33' W 074°02'925.2
2018-Feb-21 20:01N 40°42' W 074°00'3 5.7
2018-Feb-21 19:30N 40°45' W 073°58'0 0.0
2018-Feb-21 18:59N 40°45' W 073°58'0 0.0
2018-Feb-21 18:29N 40°45' W 073°58'0 0.0
2018-Feb-21 18:00N 40°45' W 073°58'0 0.0
2018-Feb-21 17:30N 40°45' W 073°58'0 0.0
2018-Feb-21 17:00N 40°45' W 073°58'0 0.0
2018-Feb-21 16:30N 40°45' W 073°58'0 0.0
2018-Feb-21 16:00N 40°45' W 073°58'0 0.0
2018-Feb-21 15:29N 40°45' W 073°58'0 0.0
2018-Feb-21 14:58N 40°45' W 073°58'3 6.5
2018-Feb-21 14:31N 40°42' W 074°00'1111.1
2018-Feb-21 13:33N 40°32' W 074°02'229.6
2018-Feb-21 13:29N 40°34' W 074°03'1123.2
2018-Feb-21 13:00N 40°45' W 073°58'612.0
2018-Feb-21 12:31N 40°39' W 074°02'15 1.8
2018-Feb-21 04:06N 40°25' W 073°60'0 0.0
2018-Feb-21 03:40N 40°25' W 073°60'0 0.0
2018-Feb-21 03:20N 40°25' W 073°60'0 0.0
2018-Feb-21 01:34N 40°25' W 073°60'0 6.3
2018-Feb-21 01:30N 40°25' W 074°00'1121.8
2018-Feb-21 01:00N 40°36' W 074°03'919.3
2018-Feb-21 00:30N 40°45' W 073°58'714.7
2018-Feb-21 00:01N 40°38' W 074°03'1320.1
2018-Feb-20 23:21N 40°25' W 074°00'917.2
2018-Feb-20 22:48N 40°34' W 074°02'828.8
2018-Feb-20 22:31N 40°42' W 074°00'3 5.8
2018-Feb-20 22:00N 40°45' W 073°58'714.1
2018-Feb-20 21:31N 40°38' W 074°02'1320.6
2018-Feb-20 20:52N 40°25' W 074°02'612.5
2018-Feb-20 20:22N 40°31' W 074°02'1130.0
2018-Feb-20 20:00N 40°42' W 074°00'3 5.7
2018-Feb-20 19:30N 40°45' W 073°58'0 0.0
2018-Feb-20 18:59N 40°45' W 073°58'0 0.0
2018-Feb-20 18:30N 40°45' W 073°58'0 0.0
2018-Feb-20 17:59N 40°45' W 073°58'0 0.0
2018-Feb-20 17:30N 40°45' W 073°58'0 0.0
2018-Feb-20 16:59N 40°45' W 073°58'0 0.0
2018-Feb-20 16:30N 40°45' W 073°58'0 0.0
2018-Feb-20 15:59N 40°45' W 073°58'0 0.0
2018-Feb-20 15:30N 40°45' W 073°58'0 0.1
2018-Feb-20 15:00N 40°45' W 073°58'713.4
2018-Feb-20 14:31N 40°39' W 074°02'5 5.8
2018-Feb-20 13:41N 40°34' W 074°03'633.1
2018-Feb-20 13:31N 40°40' W 074°01'4 7.7
2018-Feb-20 13:01N 40°43' W 073°58'611.7
2018-Feb-20 12:30N 40°38' W 074°03'1218.0
2018-Feb-20 11:49N 40°25' W 074°02'2 0.1
2018-Feb-20 00:47N 40°25' W 073°60'1 2.6
2018-Feb-20 00:30N 40°25' W 074°00'1121.4
2018-Feb-19 23:59N 40°36' W 074°03'919.3
2018-Feb-19 23:30N 40°45' W 073°58'714.7
2018-Feb-19 23:00N 40°38' W 074°03'1325.7
2018-Feb-19 22:30N 40°25' W 074°02'1119.0
2018-Feb-19 21:55N 40°36' W 074°03'818.7
2018-Feb-19 21:30N 40°43' W 073°58'1 2.9
2018-Feb-19 21:00N 40°45' W 073°58'0 0.0
2018-Feb-19 20:30N 40°45' W 073°58'0 0.0
2018-Feb-19 20:00N 40°45' W 073°58'0 0.0
2018-Feb-19 19:30N 40°45' W 073°58'0 0.0
2018-Feb-19 18:59N 40°45' W 073°58'0 0.0
2018-Feb-19 18:30N 40°45' W 073°58'0 0.0
2018-Feb-19 18:00N 40°45' W 073°58'0 0.0
2018-Feb-19 17:30N 40°45' W 073°58'0 0.0
2018-Feb-19 17:00N 40°45' W 073°58'0 0.0
2018-Feb-19 16:30N 40°45' W 073°58'0 0.0
2018-Feb-19 15:59N 40°45' W 073°58'0 0.0
2018-Feb-19 15:29N 40°45' W 073°58'0 0.0
2018-Feb-19 15:00N 40°45' W 073°58'3 5.8
2018-Feb-19 14:30N 40°42' W 074°00'1631.6
2018-Feb-19 14:00N 40°26' W 074°02'510.3
2018-Feb-19 13:30N 40°31' W 074°02'1427.2
2018-Feb-19 13:00N 40°45' W 073°58'510.0
2018-Feb-19 12:30N 40°40' W 074°01'1527.4
2018-Feb-19 11:57N 40°25' W 074°02'2 3.5
2018-Feb-19 11:26N 40°25' W 073°60'2 4.2
2018-Feb-19 11:00N 40°25' W 074°02'0 0.0
2018-Feb-19 10:30N 40°25' W 074°02'0 0.0
2018-Feb-19 10:00N 40°25' W 074°02'0 0.0
2018-Feb-19 09:28N 40°25' W 074°02'0 0.0
2018-Feb-19 08:59N 40°25' W 074°02'0 0.0
2018-Feb-19 08:24N 40°25' W 074°02'0 0.0
2018-Feb-19 08:00N 40°25' W 074°02'0 0.0
2018-Feb-19 07:29N 40°25' W 074°02'0 0.0
2018-Feb-19 07:00N 40°25' W 074°02'0 0.0
2018-Feb-19 06:30N 40°25' W 074°02'0 0.0
2018-Feb-19 05:58N 40°25' W 074°02'0 0.0
2018-Feb-19 05:30N 40°25' W 074°02'0 0.0
2018-Feb-19 05:00N 40°25' W 074°02'0 0.0
2018-Feb-19 04:30N 40°25' W 074°02'0 0.0
2018-Feb-19 04:00N 40°25' W 074°02'0 0.0
2018-Feb-19 03:30N 40°25' W 074°02'0 0.0
2018-Feb-19 02:59N 40°25' W 074°02'0 0.0
2018-Feb-19 02:28N 40°25' W 074°02'0 0.0
2018-Feb-19 02:00N 40°25' W 074°02'0 0.0
2018-Feb-19 01:30N 40°25' W 074°02'0 0.0
2018-Feb-19 01:00N 40°25' W 074°02'0 0.0
2018-Feb-19 00:30N 40°25' W 074°02'0 0.0
2018-Feb-19 00:00N 40°25' W 074°02'0 0.0
2018-Feb-18 23:30N 40°25' W 074°02'0 0.0
2018-Feb-18 22:59N 40°25' W 074°02'0 0.0
2018-Feb-18 22:28N 40°25' W 074°02'0 0.0
2018-Feb-18 22:00N 40°25' W 074°02'0 0.0
2018-Feb-18 21:30N 40°25' W 074°02'0 0.0
2018-Feb-18 20:59N 40°25' W 074°02'0 0.0
2018-Feb-18 20:30N 40°25' W 074°02'0 0.0
2018-Feb-18 20:00N 40°25' W 074°02'0 0.0
2018-Feb-18 19:30N 40°25' W 074°02'0 0.0
2018-Feb-18 19:00N 40°25' W 074°02'0 0.0
2018-Feb-18 18:30N 40°25' W 074°02'0 0.0
2018-Feb-18 18:00N 40°25' W 074°02'0 0.0
2018-Feb-18 17:28N 40°25' W 074°02'0 0.0
2018-Feb-18 17:00N 40°25' W 074°02'0 0.0
2018-Feb-18 16:30N 40°25' W 074°02'0 0.0
2018-Feb-18 16:00N 40°25' W 074°02'0 0.0
2018-Feb-18 15:29N 40°25' W 074°02'0 0.0
2018-Feb-18 14:55N 40°25' W 074°02'0 0.0
2018-Feb-18 14:30N 40°25' W 074°02'0 0.0
2018-Feb-18 14:00N 40°25' W 074°02'0 0.0
2018-Feb-18 13:28N 40°25' W 074°02'0 0.0
2018-Feb-18 12:58N 40°25' W 074°02'0 0.0
2018-Feb-18 12:30N 40°25' W 074°02'0 0.0
2018-Feb-18 11:59N 40°25' W 074°02'0 0.0
2018-Feb-18 11:30N 40°25' W 074°02'0 0.0
2018-Feb-18 11:00N 40°25' W 074°02'0 0.0
2018-Feb-18 10:30N 40°25' W 074°02'0 0.0
2018-Feb-18 10:00N 40°25' W 074°02'0 0.0
2018-Feb-18 09:30N 40°25' W 074°02'0 0.0
2018-Feb-18 09:00N 40°25' W 074°02'0 0.0
2018-Feb-18 08:30N 40°25' W 074°02'0 0.0
2018-Feb-18 08:00N 40°25' W 074°02'0 0.0
2018-Feb-18 07:30N 40°25' W 074°02'0 0.0
2018-Feb-18 07:00N 40°25' W 074°02'0 0.0
2018-Feb-18 06:30N 40°25' W 074°02'0 0.0
2018-Feb-18 05:54N 40°25' W 074°02'0 0.0
2018-Feb-18 01:53N 40°25' W 074°02'0 0.0
2018-Feb-18 01:29N 40°25' W 074°02'0 0.0
2018-Feb-18 01:00N 40°25' W 074°02'0 0.0
2018-Feb-18 00:30N 40°25' W 074°02'0 0.0
2018-Feb-18 00:00N 40°25' W 074°02'0 0.0
2018-Feb-17 23:28N 40°25' W 074°02'0 0.0
2018-Feb-17 23:00N 40°25' W 074°02'0 0.0
2018-Feb-17 22:29N 40°25' W 074°02'0 0.0
2018-Feb-17 21:30N 40°25' W 074°02'0 0.0
2018-Feb-17 21:00N 40°25' W 074°02'0 0.0
2018-Feb-17 20:30N 40°25' W 074°02'0 0.0
2018-Feb-17 19:59N 40°25' W 074°02'0 0.0
2018-Feb-17 19:30N 40°25' W 074°02'0 0.0
2018-Feb-17 18:59N 40°25' W 074°02'0 0.0
2018-Feb-17 18:28N 40°25' W 074°02'0 0.0
2018-Feb-17 17:54N 40°25' W 074°02'0 0.0
2018-Feb-17 17:28N 40°25' W 074°02'0 0.0
2018-Feb-17 17:00N 40°25' W 074°02'0 0.0
2018-Feb-17 16:26N 40°25' W 074°02'0 0.0
2018-Feb-17 16:00N 40°25' W 074°02'0 0.0
2018-Feb-17 15:23N 40°25' W 074°02'0 0.0
2018-Feb-17 14:57N 40°25' W 074°02'0 0.0
2018-Feb-17 14:26N 40°25' W 074°02'0 0.0
2018-Feb-17 14:00N 40°25' W 074°02'0 0.0
2018-Feb-17 13:29N 40°25' W 074°02'0 0.0
2018-Feb-17 12:59N 40°25' W 074°02'0 0.0
2018-Feb-17 12:28N 40°25' W 074°02'0 0.0
2018-Feb-17 12:00N 40°25' W 074°02'0 0.0
2018-Feb-17 11:30N 40°25' W 074°02'0 0.0
2018-Feb-17 11:00N 40°25' W 074°02'0 0.0
2018-Feb-17 10:30N 40°25' W 074°02'0 0.0
2018-Feb-17 10:00N 40°25' W 074°02'0 0.0
2018-Feb-17 09:30N 40°25' W 074°02'0 0.0
2018-Feb-17 09:00N 40°25' W 074°02'0 0.0
2018-Feb-17 08:29N 40°25' W 074°02'0 0.0
2018-Feb-17 07:59N 40°25' W 074°02'0 0.0
2018-Feb-17 07:29N 40°25' W 074°02'0 0.0
2018-Feb-17 06:59N 40°25' W 074°02'0 0.0
2018-Feb-17 06:30N 40°25' W 074°02'0 0.0
2018-Feb-17 06:00N 40°25' W 074°02'0 0.0
2018-Feb-17 05:30N 40°25' W 074°02'0 0.0
2018-Feb-17 05:00N 40°25' W 074°02'0 0.0
2018-Feb-17 04:30N 40°25' W 074°02'0 0.0
2018-Feb-17 03:59N 40°25' W 074°02'0 0.0
2018-Feb-17 03:30N 40°25' W 074°02'0 0.0
2018-Feb-17 03:00N 40°25' W 074°02'0 0.0
2018-Feb-17 02:30N 40°25' W 074°02'2 3.4
2018-Feb-17 01:57N 40°25' W 073°60'1 2.1
2018-Feb-17 01:29N 40°25' W 074°00'1121.3
2018-Feb-17 01:00N 40°36' W 074°03'918.9
2018-Feb-17 00:30N 40°45' W 073°58'917.9
2018-Feb-17 00:00N 40°37' W 074°03'1219.6
2018-Feb-16 23:23N 40°25' W 073°60'713.9
2018-Feb-16 22:51N 40°32' W 074°02'1130.2
2018-Feb-16 22:30N 40°42' W 074°00'3 5.9
2018-Feb-16 22:00N 40°45' W 073°58'714.4
2018-Feb-16 21:31N 40°38' W 074°02'1321.9
2018-Feb-16 20:55N 40°25' W 074°02'814.6
2018-Feb-16 20:21N 40°33' W 074°02'925.2
2018-Feb-16 20:00N 40°42' W 074°00'3 5.7
2018-Feb-16 19:29N 40°45' W 073°58'0 0.0
2018-Feb-16 19:00N 40°45' W 073°58'0 0.0
2018-Feb-16 18:30N 40°45' W 073°58'0 0.0
2018-Feb-16 18:00N 40°45' W 073°58'0 0.0
2018-Feb-16 17:30N 40°45' W 073°58'0 0.0
2018-Feb-16 17:00N 40°45' W 073°58'0 0.0
2018-Feb-16 16:30N 40°45' W 073°58'0 0.0
2018-Feb-16 16:00N 40°45' W 073°58'0 0.0
2018-Feb-16 15:30N 40°45' W 073°58'0 0.0
2018-Feb-16 15:01N 40°45' W 073°58'3 5.8
2018-Feb-16 14:30N 40°42' W 074°00'1631.0
2018-Feb-16 13:59N 40°26' W 074°02'715.1
2018-Feb-16 13:30N 40°33' W 074°02'1224.3
2018-Feb-16 13:00N 40°45' W 073°58'4 9.0
2018-Feb-16 12:31N 40°41' W 074°01'1620.6
2018-Feb-16 11:45N 40°25' W 074°00'1 0.1
2018-Feb-16 01:40N 40°25' W 073°60'1 7.7
2018-Feb-16 01:29N 40°25' W 074°01'1123.1
2018-Feb-16 01:01N 40°36' W 074°03'917.6
2018-Feb-16 00:30N 40°45' W 073°58'714.3
2018-Feb-16 00:01N 40°38' W 074°03'1423.2
2018-Feb-15 23:24N 40°25' W 073°60'510.6
2018-Feb-15 22:57N 40°29' W 074°02'1329.2
2018-Feb-15 22:30N 40°42' W 074°00'3 5.8
2018-Feb-15 22:00N 40°45' W 073°58'612.0
2018-Feb-15 21:31N 40°39' W 074°02'1424.2
2018-Feb-15 20:55N 40°25' W 074°02'1017.4
2018-Feb-15 20:22N 40°35' W 074°03'720.7
2018-Feb-15 20:00N 40°42' W 074°00'3 5.9
2018-Feb-15 19:30N 40°45' W 073°58'0 0.0
2018-Feb-15 19:00N 40°45' W 073°58'0 0.0
2018-Feb-15 18:29N 40°45' W 073°58'0 0.0
2018-Feb-15 18:00N 40°45' W 073°58'0 0.0
2018-Feb-15 17:30N 40°45' W 073°58'0 0.0
2018-Feb-15 16:59N 40°45' W 073°58'0 0.0
2018-Feb-15 16:25N 40°45' W 073°58'0 0.0
2018-Feb-15 16:00N 40°45' W 073°58'0 0.0
2018-Feb-15 15:30N 40°45' W 073°58'0 0.0
2018-Feb-15 15:00N 40°45' W 073°58'4 7.3
2018-Feb-15 14:31N 40°42' W 074°01'1213.6
2018-Feb-15 13:39N 40°30' W 074°02'534.7
2018-Feb-15 13:31N 40°35' W 074°02'1020.2
2018-Feb-15 13:00N 40°45' W 073°58'611.4
2018-Feb-15 12:31N 40°40' W 074°01'15 1.4
2018-Feb-15 01:31N 40°25' W 074°00'119.4
2018-Feb-15 01:27N 40°25' W 074°02'1123.1
2018-Feb-15 00:58N 40°36' W 074°03'917.7
2018-Feb-15 00:29N 40°45' W 073°58'613.5
2018-Feb-15 00:01N 40°39' W 074°02'1428.8
2018-Feb-14 23:30N 40°25' W 073°60'610.8
2018-Feb-14 22:55N 40°31' W 074°02'1228.2
2018-Feb-14 22:30N 40°42' W 074°00'3 5.7
2018-Feb-14 22:00N 40°45' W 073°58'713.4
2018-Feb-14 21:31N 40°39' W 074°02'1422.3
2018-Feb-14 20:54N 40°25' W 074°02'611.8
2018-Feb-14 20:24N 40°31' W 074°02'1128.9
2018-Feb-14 20:00N 40°42' W 074°00'3 5.7
2018-Feb-14 19:30N 40°45' W 073°58'0 0.0
2018-Feb-14 19:00N 40°45' W 073°58'0 0.0
2018-Feb-14 18:30N 40°45' W 073°58'0 0.0
2018-Feb-14 17:59N 40°45' W 073°58'0 0.0
2018-Feb-14 17:30N 40°45' W 073°58'0 0.0
2018-Feb-14 17:00N 40°45' W 073°58'0 0.0
2018-Feb-14 16:30N 40°45' W 073°58'0 0.0
2018-Feb-14 15:59N 40°45' W 073°58'0 0.0
2018-Feb-14 15:30N 40°45' W 073°58'3 3.0
2018-Feb-14 14:31N 40°42' W 074°00'1632.3
2018-Feb-14 14:00N 40°26' W 074°02'917.6
2018-Feb-14 13:30N 40°35' W 074°03'1021.0
2018-Feb-14 13:00N 40°45' W 073°58'4 9.1
2018-Feb-14 12:31N 40°41' W 074°01'1620.3
2018-Feb-14 11:43N 40°25' W 074°00'0 1.4
2018-Feb-14 11:30N 40°25' W 073°60'0 0.0
2018-Feb-14 01:40N 40°25' W 073°60'  
Track history (hours):
 
Tides and Currents Weather Stations Pressure Air Temp Water Temp Dewpoint Dewpoint Depression Visibility Wind Speed Wind Dir Waves Ship Positions

Seastreak New York

Owner: CIRCLE NAVIGATION, NEW YORK, NY. More information available from US FCC via Universal Licensing System and Coast Guard Vessel Documentation Center.

Last reported at 2018-Feb-24 01:30 UTC. Time now 2018-Feb-25 03:21 UTC.
Position N 40°25' W 073°60'.

; draft 4.7 m.

Type: Passenger vessel. MMSI: 367347130.

Date/timePositionNaut miles runAvg speedWind from/ knotsBaromVisibWave heightAir tempDewpointWater temp
2018-Feb-24 01:30N 40°25' W 073°60'1120.9
2018-Feb-24 01:00N 40°35' W 074°03'1020.3
2018-Feb-24 00:29N 40°45' W 073°58'612.7
2018-Feb-24 00:01N 40°39' W 074°02'1527.0
2018-Feb-23 23:28N 40°25' W 073°60'5 8.5
2018-Feb-23 22:56N 40°29' W 074°02'1331.1
2018-Feb-23 22:30N 40°42' W 074°00'3 5.8
2018-Feb-23 22:00N 40°45' W 073°58'714.5
2018-Feb-23 21:30N 40°38' W 074°03'1322.5
2018-Feb-23 20:55N 40°25' W 074°02'1016.8
2018-Feb-23 20:21N 40°35' W 074°03'822.1
2018-Feb-23 20:01N 40°42' W 074°00'3 5.7
2018-Feb-23 19:30N 40°45' W 073°58'0 0.0
2018-Feb-23 18:58N 40°45' W 073°58'0 0.0
2018-Feb-23 18:30N 40°45' W 073°58'0 0.0
2018-Feb-23 18:00N 40°45' W 073°58'0 0.0
2018-Feb-23 17:30N 40°45' W 073°58'0 0.0
2018-Feb-23 17:00N 40°45' W 073°58'0 0.0
2018-Feb-23 16:30N 40°45' W 073°58'0 0.0
2018-Feb-23 16:00N 40°45' W 073°58'0 0.0
2018-Feb-23 15:30N 40°45' W 073°58'0 0.0
2018-Feb-23 15:00N 40°45' W 073°58'3 6.1
2018-Feb-23 14:31N 40°42' W 074°00'1731.4
2018-Feb-23 13:59N 40°26' W 074°02'1118.2
2018-Feb-23 13:23N 40°36' W 074°03'922.3
2018-Feb-23 13:00N 40°45' W 073°58'611.9
2018-Feb-23 12:31N 40°39' W 074°01'1419.7
2018-Feb-23 11:47N 40°25' W 074°02'2 0.2
2018-Feb-23 01:36N 40°25' W 073°60'0 0.3
2018-Feb-23 01:30N 40°25' W 073°60'1322.9
2018-Feb-23 00:55N 40°38' W 074°03'818.6
2018-Feb-23 00:30N 40°45' W 073°58'4 7.2
2018-Feb-23 00:01N 40°41' W 074°01'1530.2
2018-Feb-22 23:30N 40°26' W 074°01'3 5.0
2018-Feb-22 22:55N 40°29' W 074°02'1332.4
2018-Feb-22 22:30N 40°42' W 074°00'3 5.7
2018-Feb-22 22:00N 40°45' W 073°58'714.5
2018-Feb-22 21:31N 40°38' W 074°02'1319.1
2018-Feb-22 20:50N 40°25' W 074°01'712.9
2018-Feb-22 20:19N 40°32' W 074°02'1033.0
2018-Feb-22 20:00N 40°42' W 074°00'3 5.8
2018-Feb-22 19:30N 40°45' W 073°58'0 0.0
2018-Feb-22 19:00N 40°45' W 073°58'0 0.0
2018-Feb-22 18:30N 40°45' W 073°58'0 0.0
2018-Feb-22 18:00N 40°45' W 073°58'0 0.0
2018-Feb-22 17:30N 40°45' W 073°58'0 0.0
2018-Feb-22 16:59N 40°45' W 073°58'0 0.0
2018-Feb-22 16:29N 40°45' W 073°58'0 0.0
2018-Feb-22 16:00N 40°45' W 073°58'0 0.0
2018-Feb-22 15:30N 40°45' W 073°58'0 0.0
2018-Feb-22 15:00N 40°45' W 073°58'4 7.6
2018-Feb-22 14:31N 40°41' W 074°01'1620.8
2018-Feb-22 13:44N 40°25' W 074°02'730.8
2018-Feb-22 13:30N 40°32' W 074°02'1325.6
2018-Feb-22 13:00N 40°45' W 073°58'612.0
2018-Feb-22 12:31N 40°39' W 074°02'1424.7
2018-Feb-22 11:56N 40°25' W 074°02'2 2.2
2018-Feb-22 11:05N 40°25' W 073°60'0 0.4
2018-Feb-22 11:00N 40°25' W 073°60'0 0.0
2018-Feb-22 02:20N 40°25' W 073°60'0 0.0
2018-Feb-22 01:56N 40°25' W 073°60'1 2.7
2018-Feb-22 01:30N 40°25' W 074°01'1121.5
2018-Feb-22 01:00N 40°36' W 074°03'918.1
2018-Feb-22 00:30N 40°45' W 073°58'715.3
2018-Feb-22 00:01N 40°38' W 074°03'1422.0
2018-Feb-21 23:24N 40°25' W 073°60'1016.6
2018-Feb-21 22:47N 40°34' W 074°03'827.4
2018-Feb-21 22:30N 40°42' W 074°00'3 5.8
2018-Feb-21 22:00N 40°45' W 073°58'815.4
2018-Feb-21 21:31N 40°38' W 074°03'1319.1
2018-Feb-21 20:50N 40°25' W 074°00'817.2
2018-Feb-21 20:23N 40°33' W 074°02'925.2
2018-Feb-21 20:01N 40°42' W 074°00'3 5.7
2018-Feb-21 19:30N 40°45' W 073°58'0 0.0
2018-Feb-21 18:59N 40°45' W 073°58'0 0.0
2018-Feb-21 18:29N 40°45' W 073°58'0 0.0
2018-Feb-21 18:00N 40°45' W 073°58'0 0.0
2018-Feb-21 17:30N 40°45' W 073°58'0 0.0
2018-Feb-21 17:00N 40°45' W 073°58'0 0.0
2018-Feb-21 16:30N 40°45' W 073°58'0 0.0
2018-Feb-21 16:00N 40°45' W 073°58'0 0.0
2018-Feb-21 15:29N 40°45' W 073°58'0 0.0
2018-Feb-21 14:58N 40°45' W 073°58'3 6.5
2018-Feb-21 14:31N 40°42' W 074°00'1111.1
2018-Feb-21 13:33N 40°32' W 074°02'229.6
2018-Feb-21 13:29N 40°34' W 074°03'1123.2
2018-Feb-21 13:00N 40°45' W 073°58'612.0
2018-Feb-21 12:31N 40°39' W 074°02'15 1.8
2018-Feb-21 04:06N 40°25' W 073°60'0 0.0
2018-Feb-21 03:40N 40°25' W 073°60'0 0.0
2018-Feb-21 03:20N 40°25' W 073°60'0 0.0
2018-Feb-21 01:34N 40°25' W 073°60'0 6.3
2018-Feb-21 01:30N 40°25' W 074°00'1121.8
2018-Feb-21 01:00N 40°36' W 074°03'919.3
2018-Feb-21 00:30N 40°45' W 073°58'714.7
2018-Feb-21 00:01N 40°38' W 074°03'1320.1
2018-Feb-20 23:21N 40°25' W 074°00'917.2
2018-Feb-20 22:48N 40°34' W 074°02'828.8
2018-Feb-20 22:31N 40°42' W 074°00'3 5.8
2018-Feb-20 22:00N 40°45' W 073°58'714.1
2018-Feb-20 21:31N 40°38' W 074°02'1320.6
2018-Feb-20 20:52N 40°25' W 074°02'612.5
2018-Feb-20 20:22N 40°31' W 074°02'1130.0
2018-Feb-20 20:00N 40°42' W 074°00'3 5.7
2018-Feb-20 19:30N 40°45' W 073°58'0 0.0
2018-Feb-20 18:59N 40°45' W 073°58'0 0.0
2018-Feb-20 18:30N 40°45' W 073°58'0 0.0
2018-Feb-20 17:59N 40°45' W 073°58'0 0.0
2018-Feb-20 17:30N 40°45' W 073°58'0 0.0
2018-Feb-20 16:59N 40°45' W 073°58'0 0.0
2018-Feb-20 16:30N 40°45' W 073°58'0 0.0
2018-Feb-20 15:59N 40°45' W 073°58'0 0.0
2018-Feb-20 15:30N 40°45' W 073°58'0 0.1
2018-Feb-20 15:00N 40°45' W 073°58'713.4
2018-Feb-20 14:31N 40°39' W 074°02'5 5.8
2018-Feb-20 13:41N 40°34' W 074°03'633.1
2018-Feb-20 13:31N 40°40' W 074°01'4 7.7
2018-Feb-20 13:01N 40°43' W 073°58'611.7
2018-Feb-20 12:30N 40°38' W 074°03'1218.0
2018-Feb-20 11:49N 40°25' W 074°02'2 0.1
2018-Feb-20 00:47N 40°25' W 073°60'1 2.6
2018-Feb-20 00:30N 40°25' W 074°00'1121.4
2018-Feb-19 23:59N 40°36' W 074°03'919.3
2018-Feb-19 23:30N 40°45' W 073°58'714.7
2018-Feb-19 23:00N 40°38' W 074°03'1325.7
2018-Feb-19 22:30N 40°25' W 074°02'1119.0
2018-Feb-19 21:55N 40°36' W 074°03'818.7
2018-Feb-19 21:30N 40°43' W 073°58'1 2.9
2018-Feb-19 21:00N 40°45' W 073°58'0 0.0
2018-Feb-19 20:30N 40°45' W 073°58'0 0.0
2018-Feb-19 20:00N 40°45' W 073°58'0 0.0
2018-Feb-19 19:30N 40°45' W 073°58'0 0.0
2018-Feb-19 18:59N 40°45' W 073°58'0 0.0
2018-Feb-19 18:30N 40°45' W 073°58'0 0.0
2018-Feb-19 18:00N 40°45' W 073°58'0 0.0
2018-Feb-19 17:30N 40°45' W 073°58'0 0.0
2018-Feb-19 17:00N 40°45' W 073°58'0 0.0
2018-Feb-19 16:30N 40°45' W 073°58'0 0.0
2018-Feb-19 15:59N 40°45' W 073°58'0 0.0
2018-Feb-19 15:29N 40°45' W 073°58'0 0.0
2018-Feb-19 15:00N 40°45' W 073°58'3 5.8
2018-Feb-19 14:30N 40°42' W 074°00'1631.6
2018-Feb-19 14:00N 40°26' W 074°02'510.3
2018-Feb-19 13:30N 40°31' W 074°02'1427.2
2018-Feb-19 13:00N 40°45' W 073°58'510.0
2018-Feb-19 12:30N 40°40' W 074°01'1527.4
2018-Feb-19 11:57N 40°25' W 074°02'2 3.5
2018-Feb-19 11:26N 40°25' W 073°60'2 4.2
2018-Feb-19 11:00N 40°25' W 074°02'0 0.0
2018-Feb-19 10:30N 40°25' W 074°02'0 0.0
2018-Feb-19 10:00N 40°25' W 074°02'0 0.0
2018-Feb-19 09:28N 40°25' W 074°02'0 0.0
2018-Feb-19 08:59N 40°25' W 074°02'0 0.0
2018-Feb-19 08:24N 40°25' W 074°02'0 0.0
2018-Feb-19 08:00N 40°25' W 074°02'0 0.0
2018-Feb-19 07:29N 40°25' W 074°02'0 0.0
2018-Feb-19 07:00N 40°25' W 074°02'0 0.0
2018-Feb-19 06:30N 40°25' W 074°02'0 0.0
2018-Feb-19 05:58N 40°25' W 074°02'0 0.0
2018-Feb-19 05:30N 40°25' W 074°02'0 0.0
2018-Feb-19 05:00N 40°25' W 074°02'0 0.0
2018-Feb-19 04:30N 40°25' W 074°02'0 0.0
2018-Feb-19 04:00N 40°25' W 074°02'0 0.0
2018-Feb-19 03:30N 40°25' W 074°02'0 0.0
2018-Feb-19 02:59N 40°25' W 074°02'0 0.0
2018-Feb-19 02:28N 40°25' W 074°02'0 0.0
2018-Feb-19 02:00N 40°25' W 074°02'0 0.0
2018-Feb-19 01:30N 40°25' W 074°02'0 0.0
2018-Feb-19 01:00N 40°25' W 074°02'0 0.0
2018-Feb-19 00:30N 40°25' W 074°02'0 0.0
2018-Feb-19 00:00N 40°25' W 074°02'0 0.0
2018-Feb-18 23:30N 40°25' W 074°02'0 0.0
2018-Feb-18 22:59N 40°25' W 074°02'0 0.0
2018-Feb-18 22:28N 40°25' W 074°02'0 0.0
2018-Feb-18 22:00N 40°25' W 074°02'0 0.0
2018-Feb-18 21:30N 40°25' W 074°02'0 0.0
2018-Feb-18 20:59N 40°25' W 074°02'0 0.0
2018-Feb-18 20:30N 40°25' W 074°02'0 0.0
2018-Feb-18 20:00N 40°25' W 074°02'0 0.0
2018-Feb-18 19:30N 40°25' W 074°02'0 0.0
2018-Feb-18 19:00N 40°25' W 074°02'0 0.0
2018-Feb-18 18:30N 40°25' W 074°02'0 0.0
2018-Feb-18 18:00N 40°25' W 074°02'0 0.0
2018-Feb-18 17:28N 40°25' W 074°02'0 0.0
2018-Feb-18 17:00N 40°25' W 074°02'0 0.0
2018-Feb-18 16:30N 40°25' W 074°02'0 0.0
2018-Feb-18 16:00N 40°25' W 074°02'0 0.0
2018-Feb-18 15:29N 40°25' W 074°02'0 0.0
2018-Feb-18 14:55N 40°25' W 074°02'0 0.0
2018-Feb-18 14:30N 40°25' W 074°02'0 0.0
2018-Feb-18 14:00N 40°25' W 074°02'0 0.0
2018-Feb-18 13:28N 40°25' W 074°02'0 0.0
2018-Feb-18 12:58N 40°25' W 074°02'0 0.0
2018-Feb-18 12:30N 40°25' W 074°02'0 0.0
2018-Feb-18 11:59N 40°25' W 074°02'0 0.0
2018-Feb-18 11:30N 40°25' W 074°02'0 0.0
2018-Feb-18 11:00N 40°25' W 074°02'0 0.0
2018-Feb-18 10:30N 40°25' W 074°02'0 0.0
2018-Feb-18 10:00N 40°25' W 074°02'0 0.0
2018-Feb-18 09:30N 40°25' W 074°02'0 0.0
2018-Feb-18 09:00N 40°25' W 074°02'0 0.0
2018-Feb-18 08:30N 40°25' W 074°02'0 0.0
2018-Feb-18 08:00N 40°25' W 074°02'0 0.0
2018-Feb-18 07:30N 40°25' W 074°02'0 0.0
2018-Feb-18 07:00N 40°25' W 074°02'0 0.0
2018-Feb-18 06:30N 40°25' W 074°02'0 0.0
2018-Feb-18 05:54N 40°25' W 074°02'0 0.0
2018-Feb-18 01:53N 40°25' W 074°02'0 0.0
2018-Feb-18 01:29N 40°25' W 074°02'0 0.0
2018-Feb-18 01:00N 40°25' W 074°02'0 0.0
2018-Feb-18 00:30N 40°25' W 074°02'0 0.0
2018-Feb-18 00:00N 40°25' W 074°02'0 0.0
2018-Feb-17 23:28N 40°25' W 074°02'0 0.0
2018-Feb-17 23:00N 40°25' W 074°02'0 0.0
2018-Feb-17 22:29N 40°25' W 074°02'0 0.0
2018-Feb-17 21:30N 40°25' W 074°02'0 0.0
2018-Feb-17 21:00N 40°25' W 074°02'0 0.0
2018-Feb-17 20:30N 40°25' W 074°02'0 0.0
2018-Feb-17 19:59N 40°25' W 074°02'0 0.0
2018-Feb-17 19:30N 40°25' W 074°02'0 0.0
2018-Feb-17 18:59N 40°25' W 074°02'0 0.0
2018-Feb-17 18:28N 40°25' W 074°02'0 0.0
2018-Feb-17 17:54N 40°25' W 074°02'0 0.0
2018-Feb-17 17:28N 40°25' W 074°02'0 0.0
2018-Feb-17 17:00N 40°25' W 074°02'0 0.0
2018-Feb-17 16:26N 40°25' W 074°02'0 0.0
2018-Feb-17 16:00N 40°25' W 074°02'0 0.0
2018-Feb-17 15:23N 40°25' W 074°02'0 0.0
2018-Feb-17 14:57N 40°25' W 074°02'0 0.0
2018-Feb-17 14:26N 40°25' W 074°02'0 0.0
2018-Feb-17 14:00N 40°25' W 074°02'0 0.0
2018-Feb-17 13:29N 40°25' W 074°02'0 0.0
2018-Feb-17 12:59N 40°25' W 074°02'0 0.0
2018-Feb-17 12:28N 40°25' W 074°02'0 0.0
2018-Feb-17 12:00N 40°25' W 074°02'0 0.0
2018-Feb-17 11:30N 40°25' W 074°02'0 0.0
2018-Feb-17 11:00N 40°25' W 074°02'0 0.0
2018-Feb-17 10:30N 40°25' W 074°02'0 0.0
2018-Feb-17 10:00N 40°25' W 074°02'0 0.0
2018-Feb-17 09:30N 40°25' W 074°02'0 0.0
2018-Feb-17 09:00N 40°25' W 074°02'0 0.0
2018-Feb-17 08:29N 40°25' W 074°02'0 0.0
2018-Feb-17 07:59N 40°25' W 074°02'0 0.0
2018-Feb-17 07:29N 40°25' W 074°02'0 0.0
2018-Feb-17 06:59N 40°25' W 074°02'0 0.0
2018-Feb-17 06:30N 40°25' W 074°02'0 0.0
2018-Feb-17 06:00N 40°25' W 074°02'0 0.0
2018-Feb-17 05:30N 40°25' W 074°02'0 0.0
2018-Feb-17 05:00N 40°25' W 074°02'0 0.0
2018-Feb-17 04:30N 40°25' W 074°02'0 0.0
2018-Feb-17 03:59N 40°25' W 074°02'0 0.0
2018-Feb-17 03:30N 40°25' W 074°02'0 0.0
2018-Feb-17 03:00N 40°25' W 074°02'0 0.0
2018-Feb-17 02:30N 40°25' W 074°02'2 3.4
2018-Feb-17 01:57N 40°25' W 073°60'1 2.1
2018-Feb-17 01:29N 40°25' W 074°00'1121.3
2018-Feb-17 01:00N 40°36' W 074°03'918.9
2018-Feb-17 00:30N 40°45' W 073°58'917.9
2018-Feb-17 00:00N 40°37' W 074°03'1219.6
2018-Feb-16 23:23N 40°25' W 073°60'713.9
2018-Feb-16 22:51N 40°32' W 074°02'1130.2
2018-Feb-16 22:30N 40°42' W 074°00'3 5.9
2018-Feb-16 22:00N 40°45' W 073°58'714.4
2018-Feb-16 21:31N 40°38' W 074°02'1321.9
2018-Feb-16 20:55N 40°25' W 074°02'814.6
2018-Feb-16 20:21N 40°33' W 074°02'925.2
2018-Feb-16 20:00N 40°42' W 074°00'3 5.7
2018-Feb-16 19:29N 40°45' W 073°58'0 0.0
2018-Feb-16 19:00N 40°45' W 073°58'0 0.0
2018-Feb-16 18:30N 40°45' W 073°58'0 0.0
2018-Feb-16 18:00N 40°45' W 073°58'0 0.0
2018-Feb-16 17:30N 40°45' W 073°58'0 0.0
2018-Feb-16 17:00N 40°45' W 073°58'0 0.0
2018-Feb-16 16:30N 40°45' W 073°58'0 0.0
2018-Feb-16 16:00N 40°45' W 073°58'0 0.0
2018-Feb-16 15:30N 40°45' W 073°58'0 0.0
2018-Feb-16 15:01N 40°45' W 073°58'3 5.8
2018-Feb-16 14:30N 40°42' W 074°00'1631.0
2018-Feb-16 13:59N 40°26' W 074°02'715.1
2018-Feb-16 13:30N 40°33' W 074°02'1224.3
2018-Feb-16 13:00N 40°45' W 073°58'4 9.0
2018-Feb-16 12:31N 40°41' W 074°01'1620.6
2018-Feb-16 11:45N 40°25' W 074°00'1 0.1
2018-Feb-16 01:40N 40°25' W 073°60'1 7.7
2018-Feb-16 01:29N 40°25' W 074°01'1123.1
2018-Feb-16 01:01N 40°36' W 074°03'917.6
2018-Feb-16 00:30N 40°45' W 073°58'714.3
2018-Feb-16 00:01N 40°38' W 074°03'1423.2
2018-Feb-15 23:24N 40°25' W 073°60'510.6
2018-Feb-15 22:57N 40°29' W 074°02'1329.2
2018-Feb-15 22:30N 40°42' W 074°00'3 5.8
2018-Feb-15 22:00N 40°45' W 073°58'612.0
2018-Feb-15 21:31N 40°39' W 074°02'1424.2
2018-Feb-15 20:55N 40°25' W 074°02'1017.4
2018-Feb-15 20:22N 40°35' W 074°03'720.7
2018-Feb-15 20:00N 40°42' W 074°00'3 5.9
2018-Feb-15 19:30N 40°45' W 073°58'0 0.0
2018-Feb-15 19:00N 40°45' W 073°58'0 0.0
2018-Feb-15 18:29N 40°45' W 073°58'0 0.0
2018-Feb-15 18:00N 40°45' W 073°58'0 0.0
2018-Feb-15 17:30N 40°45' W 073°58'0 0.0
2018-Feb-15 16:59N 40°45' W 073°58'0 0.0
2018-Feb-15 16:25N 40°45' W 073°58'0 0.0
2018-Feb-15 16:00N 40°45' W 073°58'0 0.0
2018-Feb-15 15:30N 40°45' W 073°58'0 0.0
2018-Feb-15 15:00N 40°45' W 073°58'4 7.3
2018-Feb-15 14:31N 40°42' W 074°01'1213.6
2018-Feb-15 13:39N 40°30' W 074°02'534.7
2018-Feb-15 13:31N 40°35' W 074°02'1020.2
2018-Feb-15 13:00N 40°45' W 073°58'611.4
2018-Feb-15 12:31N 40°40' W 074°01'15 1.4
2018-Feb-15 01:31N 40°25' W 074°00'119.4
2018-Feb-15 01:27N 40°25' W 074°02'1123.1
2018-Feb-15 00:58N 40°36' W 074°03'917.7
2018-Feb-15 00:29N 40°45' W 073°58'613.5
2018-Feb-15 00:01N 40°39' W 074°02'1428.8
2018-Feb-14 23:30N 40°25' W 073°60'610.8
2018-Feb-14 22:55N 40°31' W 074°02'1228.2
2018-Feb-14 22:30N 40°42' W 074°00'3 5.7
2018-Feb-14 22:00N 40°45' W 073°58'713.4
2018-Feb-14 21:31N 40°39' W 074°02'1422.3
2018-Feb-14 20:54N 40°25' W 074°02'611.8
2018-Feb-14 20:24N 40°31' W 074°02'1128.9
2018-Feb-14 20:00N 40°42' W 074°00'3 5.7
2018-Feb-14 19:30N 40°45' W 073°58'0 0.0
2018-Feb-14 19:00N 40°45' W 073°58'0 0.0
2018-Feb-14 18:30N 40°45' W 073°58'0 0.0
2018-Feb-14 17:59N 40°45' W 073°58'0 0.0
2018-Feb-14 17:30N 40°45' W 073°58'0 0.0
2018-Feb-14 17:00N 40°45' W 073°58'0 0.0
2018-Feb-14 16:30N 40°45' W 073°58'0 0.0
2018-Feb-14 15:59N 40°45' W 073°58'0 0.0
2018-Feb-14 15:30N 40°45' W 073°58'3 3.0
2018-Feb-14 14:31N 40°42' W 074°00'1632.3
2018-Feb-14 14:00N 40°26' W 074°02'917.6
2018-Feb-14 13:30N 40°35' W 074°03'1021.0
2018-Feb-14 13:00N 40°45' W 073°58'4 9.1
2018-Feb-14 12:31N 40°41' W 074°01'1620.3
2018-Feb-14 11:43N 40°25' W 074°00'0 1.4
2018-Feb-14 11:30N 40°25' W 073°60'0 0.0
2018-Feb-14 01:40N 40°25' W 073°60'  

Dump ship's entire track history